createdAt,value
2018-04-14T00:03:07.866Z,14.20
2018-04-14T00:07:14.423Z,15.10
2018-04-14T00:11:22.931Z,17.40
2018-04-14T00:15:29.858Z,17.30
2018-04-14T00:19:36.379Z,18.00
2018-04-14T00:23:43.856Z,18.10
2018-04-14T00:27:50.126Z,18.10
2018-04-14T00:31:56.825Z,19.30
2018-04-14T00:36:03.934Z,20.60
2018-04-14T00:40:10.490Z,20.10
2018-04-14T00:44:17.130Z,20.00
2018-04-14T00:48:23.593Z,20.80
2018-04-14T00:52:29.956Z,20.50
2018-04-14T00:56:36.940Z,19.60
2018-04-14T01:00:43.372Z,20.70
2018-04-14T01:04:52.262Z,21.70
2018-04-14T01:08:59.759Z,21.40
2018-04-14T01:13:06.449Z,21.40
2018-04-14T01:17:14.135Z,21.50
2018-04-14T01:21:21.813Z,21.90
2018-04-14T01:25:28.246Z,22.00
2018-04-14T01:29:35.005Z,21.40
2018-04-14T01:33:42.289Z,22.10
2018-04-14T01:37:48.738Z,22.10
2018-04-14T01:41:55.654Z,22.90
2018-04-14T01:46:02.982Z,23.40
2018-04-14T01:50:10.326Z,23.60
2018-04-14T01:54:16.786Z,23.60
2018-04-14T01:58:23.559Z,23.70
2018-04-14T02:02:30.542Z,23.60
2018-04-14T02:06:38.315Z,23.70
2018-04-14T02:10:45.119Z,24.50
2018-04-14T02:14:52.625Z,24.70
2018-04-14T02:19:00.238Z,24.60
2018-04-14T02:23:07.435Z,24.60
2018-04-14T02:27:14.725Z,25.50
2018-04-14T02:31:21.179Z,25.40
2018-04-14T02:35:28.526Z,26.00
2018-04-14T02:39:35.251Z,26.30
2018-04-14T02:43:41.694Z,27.00
2018-04-14T02:47:48.106Z,27.30
2018-04-14T02:51:54.698Z,27.40
2018-04-14T02:56:00.867Z,27.90
2018-04-14T03:00:07.660Z,27.70
2018-04-14T03:04:14.491Z,28.40
2018-04-14T03:08:22.960Z,28.00
2018-04-14T03:12:29.720Z,28.00
2018-04-14T03:16:36.705Z,28.40
2018-04-14T03:20:42.630Z,27.40
2018-04-14T03:24:49.438Z,29.60
2018-04-14T03:28:57.789Z,30.80
2018-04-14T03:33:05.506Z,30.80
2018-04-14T03:37:13.371Z,30.00
2018-04-14T03:41:23.026Z,30.10
2018-04-14T03:45:30.829Z,30.20
2018-04-14T03:49:38.028Z,30.20
2018-04-14T03:53:44.821Z,31.20
2018-04-14T03:57:51.439Z,31.70
2018-04-14T04:01:57.903Z,32.10
2018-04-14T04:06:04.568Z,33.20
2018-04-14T04:10:13.771Z,33.00
2018-04-14T04:14:21.125Z,33.00
2018-04-14T04:18:40.897Z,34.70
2018-04-14T04:22:58.800Z,34.70
2018-04-14T04:27:06.010Z,35.10
2018-04-14T04:31:13.283Z,34.90
2018-04-14T04:35:21.060Z,34.90
2018-04-14T04:39:27.744Z,35.40
2018-04-14T04:43:34.544Z,35.50
2018-04-14T04:47:41.250Z,36.20
2018-04-14T04:51:47.816Z,37.30
2018-04-14T04:55:54.693Z,36.80
2018-04-14T05:00:01.387Z,37.50
2018-04-14T05:04:09.434Z,37.50
2018-04-14T05:08:16.856Z,37.50
2018-04-14T05:12:25.406Z,38.40
2018-04-14T05:16:32.689Z,38.40
2018-04-14T05:20:39.225Z,39.40
2018-04-14T05:24:45.742Z,38.40
2018-04-14T05:28:52.874Z,38.70
2018-04-14T05:33:00.526Z,39.20
2018-04-14T05:37:07.319Z,38.80
2018-04-14T05:41:13.751Z,38.70
2018-04-14T05:45:20.262Z,38.70
2018-04-14T05:49:44.999Z,40.10
2018-04-14T05:53:52.749Z,40.10
2018-04-14T05:58:00.277Z,41.40
2018-04-14T06:02:06.739Z,41.40
2018-04-14T06:06:14.261Z,41.70
2018-04-14T06:10:20.518Z,41.70
2018-04-14T06:14:28.151Z,41.30
2018-04-14T06:18:34.674Z,41.50
2018-04-14T06:22:41.309Z,41.70
2018-04-14T06:26:47.744Z,42.50
2018-04-14T06:30:54.072Z,42.60
2018-04-14T06:35:00.694Z,42.00
2018-04-14T06:39:08.337Z,41.40
2018-04-14T06:43:15.547Z,38.20
2018-04-14T06:47:21.921Z,38.00
2018-04-14T06:51:29.241Z,39.00
2018-04-14T06:55:36.667Z,39.90
2018-04-14T06:59:43.447Z,39.90
2018-04-14T07:03:50.039Z,39.30
2018-04-14T07:07:56.520Z,38.60
2018-04-14T07:12:03.088Z,41.70
2018-04-14T07:16:10.658Z,41.60
2018-04-14T07:20:18.099Z,45.50
2018-04-14T07:24:24.521Z,45.50
2018-04-14T07:28:31.034Z,42.10
2018-04-14T07:32:37.631Z,38.80
2018-04-14T07:36:44.291Z,37.30
2018-04-14T07:40:51.616Z,39.60
2018-04-14T07:44:57.935Z,39.60
2018-04-14T07:49:04.668Z,40.10
2018-04-14T07:53:10.933Z,40.60
2018-04-14T07:57:17.707Z,40.90
2018-04-14T08:01:25.645Z,44.10
2018-04-14T08:05:32.279Z,43.50
2018-04-14T08:09:39.485Z,43.60
2018-04-14T08:13:46.073Z,43.60
2018-04-14T08:17:54.490Z,44.50
2018-04-14T08:22:01.092Z,44.50
2018-04-14T08:26:07.333Z,44.20
2018-04-14T08:30:13.739Z,45.40
2018-04-14T08:34:20.132Z,45.50
2018-04-14T08:38:26.416Z,42.60
2018-04-14T08:42:32.871Z,43.20
2018-04-14T08:46:39.551Z,44.10
2018-04-14T08:50:46.301Z,42.50
2018-04-14T08:54:53.589Z,40.20
2018-04-14T08:59:00.234Z,40.20
2018-04-14T09:03:06.931Z,40.90
2018-04-14T09:07:14.322Z,40.40
2018-04-14T09:11:20.693Z,40.40
2018-04-14T09:15:27.310Z,39.90
2018-04-14T09:19:35.166Z,40.10
2018-04-14T09:23:41.605Z,38.10
2018-04-14T09:27:48.184Z,37.40
2018-04-14T09:31:54.742Z,37.00
2018-04-14T09:36:02.402Z,38.10
2018-04-14T09:40:09.292Z,38.10
2018-04-14T09:44:16.159Z,37.90
2018-04-14T09:48:22.898Z,37.40
2018-04-14T09:52:29.478Z,39.00
2018-04-14T09:56:35.881Z,39.10
2018-04-14T10:00:47.752Z,39.00
2018-04-14T10:04:54.283Z,39.60
2018-04-14T10:09:00.657Z,39.90
2018-04-14T10:13:08.140Z,39.70
2018-04-14T10:17:14.522Z,39.60
2018-04-14T10:21:21.875Z,39.80
2018-04-14T10:25:28.346Z,41.70
2018-04-14T10:29:35.335Z,39.10
2018-04-14T10:33:41.835Z,39.10
2018-04-14T10:37:48.178Z,39.90
2018-04-14T10:41:54.541Z,38.70
2018-04-14T10:46:00.867Z,40.20
2018-04-14T10:50:08.214Z,43.30
2018-04-14T10:54:14.625Z,43.20
2018-04-14T10:58:21.341Z,44.40
2018-04-14T11:02:27.942Z,43.40
2018-04-14T11:06:34.359Z,43.40
2018-04-14T11:10:40.535Z,45.90
2018-04-14T11:14:47.206Z,46.00
2018-04-14T11:18:53.581Z,45.80
2018-04-14T11:23:01.084Z,45.30
2018-04-14T11:27:08.352Z,48.20
2018-04-14T11:31:15.009Z,48.10
2018-04-14T11:35:21.569Z,48.60
2018-04-14T11:39:28.024Z,48.40
2018-04-14T11:43:34.577Z,48.50
2018-04-14T11:47:41.172Z,48.00
2018-04-14T11:51:47.476Z,48.90
2018-04-14T11:55:53.943Z,49.00
2018-04-14T12:00:01.166Z,49.20
2018-04-14T12:04:08.001Z,49.20
2018-04-14T12:08:14.572Z,49.30
2018-04-14T12:12:21.103Z,48.80
2018-04-14T12:16:27.158Z,48.90
2018-04-14T12:20:33.813Z,48.50
2018-04-14T12:24:41.078Z,50.30
2018-04-14T12:28:49.445Z,49.80
2018-04-14T12:32:55.857Z,49.00
2018-04-14T12:37:02.710Z,49.00
2018-04-14T12:41:09.357Z,49.90
2018-04-14T12:45:15.695Z,50.30
2018-04-14T12:49:22.903Z,49.40
2018-04-14T12:53:29.738Z,49.30
2018-04-14T12:57:36.233Z,50.90
2018-04-14T13:01:42.604Z,50.10
2018-04-14T13:05:49.865Z,50.50
2018-04-14T13:09:56.448Z,50.50
2018-04-14T13:14:03.176Z,52.30
2018-04-14T13:18:10.708Z,51.90
2018-04-14T13:22:17.126Z,51.90
2018-04-14T13:26:25.023Z,52.50
2018-04-14T13:30:31.530Z,51.30
2018-04-14T13:34:38.985Z,52.40
2018-04-14T13:38:46.061Z,49.80
2018-04-14T13:42:52.483Z,49.80
2018-04-14T13:46:59.093Z,50.40
2018-04-14T13:51:06.395Z,50.60
2018-04-14T13:55:12.718Z,50.60
2018-04-14T13:59:19.007Z,49.10
2018-04-14T14:03:26.076Z,46.80
2018-04-14T14:07:32.873Z,47.40
2018-04-14T14:11:39.355Z,45.20
2018-04-14T14:15:45.821Z,44.50
2018-04-14T14:19:52.983Z,46.20
2018-04-14T14:23:59.581Z,47.90
2018-04-14T14:28:06.840Z,47.40
2018-04-14T14:32:14.152Z,44.00
2018-04-14T14:36:20.685Z,44.00
2018-04-14T14:40:27.288Z,42.60
2018-04-14T14:44:33.577Z,42.90
2018-04-14T14:48:40.375Z,43.80
2018-04-14T14:52:47.008Z,41.50
2018-04-14T14:56:53.562Z,38.90
2018-04-14T15:01:01.019Z,36.70
2018-04-14T15:05:07.523Z,36.60
2018-04-14T15:09:14.092Z,34.80
2018-04-14T15:13:20.609Z,33.30
2018-04-14T15:17:27.603Z,33.50
2018-04-14T15:21:34.155Z,33.40
2018-04-14T15:25:40.744Z,32.10
2018-04-14T15:29:48.853Z,32.40
2018-04-14T15:33:55.422Z,31.30
2018-04-14T15:38:01.818Z,29.80
2018-04-14T15:42:08.411Z,29.20
2018-04-14T15:46:16.110Z,28.50
2018-04-14T15:50:22.428Z,28.30
2018-04-14T15:54:29.173Z,28.10
2018-04-14T15:58:36.180Z,28.10
2018-04-14T16:02:42.502Z,28.10
2018-04-14T16:06:49.679Z,31.80
2018-04-14T16:10:56.554Z,31.70
2018-04-14T16:15:03.023Z,31.10
2018-04-14T16:19:10.499Z,30.00
2018-04-14T16:23:17.115Z,29.50
2018-04-14T16:27:23.375Z,29.10
2018-04-14T16:31:31.744Z,32.30
2018-04-14T16:35:38.529Z,32.30
2018-04-14T16:39:44.960Z,29.00
2018-04-14T16:43:51.661Z,27.00
2018-04-14T16:47:58.175Z,25.30
2018-04-14T16:52:04.675Z,24.00
2018-04-14T16:56:11.043Z,23.70
2018-04-14T17:00:17.626Z,22.70
2018-04-14T17:04:23.795Z,22.80
2018-04-14T17:08:31.136Z,23.60
2018-04-14T17:12:37.657Z,23.50
2018-04-14T17:16:44.869Z,22.70
2018-04-14T17:20:53.292Z,23.10
2018-04-14T17:24:59.649Z,23.00
2018-04-14T17:29:06.561Z,21.80
2018-04-14T17:33:15.480Z,22.50
2018-04-14T17:37:22.760Z,19.10
2018-04-14T17:41:29.183Z,19.00
2018-04-14T17:45:35.477Z,18.90
2018-04-14T17:49:41.758Z,20.00
2018-04-14T17:53:48.465Z,19.00
2018-04-14T17:57:55.765Z,22.30
2018-04-14T18:02:04.627Z,22.60
2018-04-14T18:06:11.828Z,22.10
2018-04-14T18:10:18.500Z,22.20
2018-04-14T18:14:26.733Z,20.90
2018-04-14T18:18:33.494Z,20.90
2018-04-14T18:22:40.117Z,24.90
2018-04-14T18:26:46.836Z,22.20
2018-04-14T18:30:53.602Z,22.00
2018-04-14T18:35:02.166Z,19.40
2018-04-14T18:39:08.736Z,19.40
